Time;durP1;ratioP1;P1;durP2;ratioP2;P2;SDS_P1;SDS_P2;PMS_P1;PMS_P2;Temp;Humidity;BMP_temperature;BMP_pressure;BME280_temperature;BME280_humidity;BME280_pressure;Samples;Min_cycle;Max_cycle;Signal;HPM_P1;HPM_P2
2022/12/06 00:01:33;;;;;;;6.45;1.35;;;5.50;99.90;;;;;;5054005;28;20032;-76
2022/12/06 00:04:02;;;;;;;4.80;1.35;;;5.50;99.90;;;;;;5054459;28;20033;-76
2022/12/06 00:06:30;;;;;;;7.68;1.30;;;5.50;99.90;;;;;;5055506;28;20102;-76
2022/12/06 00:08:57;;;;;;;6.15;1.52;;;5.40;99.90;;;;;;5054143;28;20400;-76
2022/12/06 00:11:28;;;;;;;5.65;0.90;;;5.40;99.90;;;;;;5054004;28;20128;-76
2022/12/06 00:13:59;;;;;;;3.55;1.05;;;5.40;99.90;;;;;;5054014;28;20013;-76
2022/12/06 00:16:26;;;;;;;8.68;1.30;;;5.40;99.90;;;;;;5053824;28;20021;-76
2022/12/06 00:18:53;;;;;;;2.95;0.70;;;5.40;99.90;;;;;;5055466;28;20074;-76
2022/12/06 00:21:22;;;;;;;5.43;1.00;;;5.40;99.90;;;;;;5053734;28;20484;-75
2022/12/06 00:23:50;;;;;;;5.53;1.38;;;5.40;99.90;;;;;;5053733;28;20021;-75
2022/12/06 00:26:17;;;;;;;6.68;1.10;;;5.50;99.90;;;;;;5055342;28;20028;-75
2022/12/06 00:28:43;;;;;;;6.63;1.45;;;5.50;99.90;;;;;;5054020;28;20025;-75
2022/12/06 00:31:19;;;;;;;6.75;1.08;;;5.50;99.90;;;;;;5055041;28;20025;-76
2022/12/06 00:33:46;;;;;;;6.47;1.75;;;5.50;99.90;;;;;;5054992;28;20013;-76
2022/12/06 00:36:15;;;;;;;4.53;1.08;;;5.40;99.90;;;;;;5054955;28;20025;-76
2022/12/06 00:38:41;;;;;;;10.40;0.90;;;5.50;99.90;;;;;;5053771;28;20079;-76
2022/12/06 00:41:10;;;;;;;3.88;0.85;;;5.50;99.90;;;;;;5053580;28;20037;-76
2022/12/06 00:43:37;;;;;;;4.72;1.05;;;5.60;99.90;;;;;;5053567;28;20487;-76
2022/12/06 00:46:04;;;;;;;7.85;0.85;;;5.60;99.90;;;;;;5054688;28;20056;-77
2022/12/06 00:48:31;;;;;;;6.47;1.60;;;5.60;99.90;;;;;;5055456;28;20362;-76
2022/12/06 00:50:57;;;;;;;6.15;1.00;;;5.60;99.90;;;;;;5053211;28;20391;-76
2022/12/06 00:53:24;;;;;;;4.88;0.70;;;5.60;99.90;;;;;;5053307;28;20017;-76
2022/12/06 00:55:49;;;;;;;4.90;0.95;;;5.60;99.90;;;;;;5054385;28;20040;-77
2022/12/06 00:58:17;;;;;;;4.50;0.75;;;5.60;99.90;;;;;;5053222;28;20479;-76
2022/12/06 01:00:42;;;;;;;4.32;0.43;;;5.60;99.90;;;;;;5054466;28;20067;-76
2022/12/06 01:03:08;;;;;;;7.10;0.90;;;5.60;99.90;;;;;;5054321;28;20460;-76
2022/12/06 01:05:42;;;;;;;3.08;0.50;;;5.60;99.90;;;;;;5054075;28;20033;-76
2022/12/06 01:08:08;;;;;;;6.43;0.73;;;5.60;99.90;;;;;;5054148;28;20085;-76
2022/12/06 01:10:35;;;;;;;4.72;0.70;;;5.60;99.90;;;;;;5054743;28;20025;-76
2022/12/06 01:13:00;;;;;;;2.25;0.47;;;5.60;99.90;;;;;;5054108;28;20388;-76
2022/12/06 01:15:26;;;;;;;3.60;0.57;;;5.60;99.90;;;;;;5054225;28;20017;-76
2022/12/06 01:17:51;;;;;;;7.57;0.77;;;5.50;99.90;;;;;;5054096;28;20025;-77
2022/12/06 01:20:17;;;;;;;7.10;0.70;;;5.50;99.90;;;;;;5054192;28;20047;-76
2022/12/06 01:22:43;;;;;;;2.65;0.57;;;5.50;99.90;;;;;;5053902;28;20053;-76
2022/12/06 01:25:08;;;;;;;6.88;1.08;;;5.50;99.90;;;;;;5052776;28;20494;-76
2022/12/06 01:27:34;;;;;;;6.57;1.20;;;5.50;99.90;;;;;;5052652;28;20033;-76
2022/12/06 01:30:00;;;;;;;5.82;0.45;;;5.50;99.90;;;;;;5053799;28;20025;-76
2022/12/06 01:32:28;;;;;;;8.20;0.32;;;5.50;99.90;;;;;;5052588;28;20021;-76
2022/12/06 01:34:53;;;;;;;6.97;0.68;;;5.60;99.90;;;;;;5052457;28;20476;-76
2022/12/06 01:37:19;;;;;;;8.63;0.82;;;5.60;99.90;;;;;;5052432;28;20024;-76
2022/12/06 01:39:44;;;;;;;3.88;1.45;;;5.50;99.90;;;;;;5052684;28;20021;-77
2022/12/06 01:42:11;;;;;;;7.43;0.77;;;5.50;99.90;;;;;;5053157;28;20025;-76
2022/12/06 01:44:47;;;;;;;5.65;1.00;;;5.50;99.90;;;;;;5054392;28;20021;-76
2022/12/06 01:47:24;;;;;;;2.53;0.50;;;5.50;99.90;;;;;;5053549;28;20036;-76
2022/12/06 01:49:59;;;;;;;3.67;0.40;;;5.50;99.90;;;;;;5052419;28;20021;-76
2022/12/06 01:52:31;;;;;;;4.57;0.68;;;5.40;99.90;;;;;;5052390;28;20036;-76
2022/12/06 01:54:59;;;;;;;1.85;0.43;;;5.40;99.90;;;;;;5053456;28;20060;-76
2022/12/06 01:57:24;;;;;;;6.95;1.15;;;5.40;99.90;;;;;;5053613;28;20075;-76
2022/12/06 01:59:50;;;;;;;7.90;0.73;;;5.40;99.90;;;;;;5053417;28;20439;-76
2022/12/06 02:02:16;;;;;;;5.85;0.47;;;5.40;99.90;;;;;;5053384;28;20387;-76
2022/12/06 02:04:43;;;;;;;5.97;1.05;;;5.30;99.90;;;;;;5053398;28;20025;-76
2022/12/06 02:07:10;;;;;;;3.20;0.50;;;;;;;;;;5053178;28;20033;-76
2022/12/06 02:09:37;;;;;;;4.78;0.35;;;5.30;99.90;;;;;;5053457;28;20029;-76
2022/12/06 02:12:05;;;;;;;1.83;0.22;;;6.40;99.90;;;;;;5053679;28;20025;-76
2022/12/06 02:14:33;;;;;;;3.70;0.30;;;5.30;99.90;;;;;;5052934;28;20522;-75
2022/12/06 02:17:01;;;;;;;4.68;1.17;;;5.40;99.90;;;;;;5054039;28;20028;-76
2022/12/06 02:19:55;;;;;;;5.50;0.35;;;5.30;99.90;;;;;;5052709;28;20055;-76
2022/12/06 02:22:58;;;;;;;2.67;0.10;;;5.30;99.90;;;;;;5054355;28;20059;-76
2022/12/06 02:25:51;;;;;;;5.05;0.40;;;5.20;99.90;;;;;;5052361;28;20026;-76
2022/12/06 02:28:35;;;;;;;4.15;0.63;;;5.20;99.90;;;;;;5052694;28;20438;-76
2022/12/06 02:31:17;;;;;;;3.95;0.32;;;5.20;99.90;;;;;;5053222;28;20124;-74
2022/12/06 02:34:15;;;;;;;10.52;1.30;;;5.20;99.90;;;;;;5052554;28;20025;-75
2022/12/06 02:36:51;;;;;;;2.35;0.20;;;5.20;99.90;;;;;;5044794;28;20037;-76
2022/12/06 02:39:35;;;;;;;6.63;0.80;;;5.20;99.90;;;;;;5052295;28;20083;-76
2022/12/06 02:42:15;;;;;;;5.53;0.47;;;5.20;99.90;;;;;;5053283;28;20493;-76
2022/12/06 02:44:48;;;;;;;2.65;0.40;;;5.20;99.90;;;;;;5053239;28;20025;-76
2022/12/06 02:47:16;;;;;;;2.75;0.22;;;5.20;99.90;;;;;;5053813;28;20028;-76
2022/12/06 02:49:48;;;;;;;3.53;0.52;;;5.20;99.90;;;;;;5052687;28;20017;-76
2022/12/06 02:52:14;;;;;;;4.25;0.30;;;5.20;99.90;;;;;;5052558;28;20175;-76
2022/12/06 02:54:42;;;;;;;1.77;0.30;;;5.20;99.90;;;;;;5057103;28;20028;-76
2022/12/06 02:57:08;;;;;;;6.18;0.43;;;5.20;99.90;;;;;;5055714;28;20425;-76
2022/12/06 02:59:34;;;;;;;3.90;0.65;;;5.30;99.90;;;;;;5057918;28;20044;-76
2022/12/06 03:02:03;;;;;;;4.15;0.28;;;5.30;99.90;;;;;;5057372;28;20036;-76
2022/12/06 03:04:46;;;;;;;1.17;0.10;;;5.20;99.90;;;;;;5057177;28;20052;-76
2022/12/06 03:07:35;;;;;;;4.72;0.28;;;5.20;99.90;;;;;;5057337;28;20124;-76
2022/12/06 03:10:09;;;;;;;;;;;5.30;99.90;;;;;;5057838;28;20029;-76
2022/12/06 03:12:39;;;;;;;2.05;0.10;;;5.30;99.90;;;;;;5055850;28;19905;-76
2022/12/06 03:15:25;;;;;;;2.92;0.17;;;5.30;99.90;;;;;;5056598;28;20025;-76
2022/12/06 03:18:10;;;;;;;4.93;0.57;;;5.20;99.90;;;;;;5055673;28;20029;-75
2022/12/06 03:20:46;;;;;;;1.15;0.10;;;5.30;99.90;;;;;;5055668;28;20029;-76
2022/12/06 03:23:20;;;;;;;2.15;0.10;;;5.30;99.90;;;;;;5056982;28;20045;-75
2022/12/06 03:25:46;;;;;;;2.05;0.25;;;5.20;99.90;;;;;;5055708;28;20056;-75
2022/12/06 03:28:17;;;;;;;1.48;0.10;;;5.20;99.90;;;;;;5057380;28;20084;-75
2022/12/06 03:30:47;;;;;;;3.63;0.17;;;5.20;99.90;;;;;;5055587;28;20025;-75
2022/12/06 03:33:15;;;;;;;1.65;0.10;;;5.20;99.90;;;;;;5055476;28;20026;-76
2022/12/06 03:35:42;;;;;;;3.13;0.03;;;5.20;99.90;;;;;;5056505;28;20074;-75
2022/12/06 03:38:32;;;;;;;1.35;0.30;;;5.20;99.90;;;;;;5056594;28;20029;-75
2022/12/06 03:41:03;;;;;;;2.30;0.20;;;5.20;99.90;;;;;;5055557;28;20037;-75
2022/12/06 03:43:29;;;;;;;4.22;0.10;;;5.20;99.90;;;;;;5055254;28;20021;-76
2022/12/06 03:46:02;;;;;;;1.65;0.05;;;5.10;99.90;;;;;;5054703;28;20036;-76
2022/12/06 03:48:36;;;;;;;3.60;0.28;;;5.10;99.90;;;;;;5055954;28;20555;-76
2022/12/06 03:51:06;;;;;;;0.50;0.10;;;5.10;99.90;;;;;;5054426;28;20479;-76
2022/12/06 03:53:32;;;;;;;1.25;0.10;;;5.10;99.90;;;;;;5055977;28;20029;-76
2022/12/06 03:55:58;;;;;;;3.85;0.17;;;5.00;99.90;;;;;;5054510;28;20040;-76
2022/12/06 03:58:24;;;;;;;2.28;0.32;;;5.00;99.90;;;;;;5054336;28;20122;-76
2022/12/06 04:00:49;;;;;;;5.43;0.22;;;5.00;99.90;;;;;;5055783;28;20480;-76
2022/12/06 04:03:16;;;;;;;0.93;0.10;;;5.00;99.90;;;;;;5054448;28;20067;-76
2022/12/06 04:05:42;;;;;;;4.28;0.35;;;5.00;99.90;;;;;;5054063;28;20498;-76
2022/12/06 04:08:07;;;;;;;1.67;0.00;;;5.00;99.90;;;;;;5055447;28;20057;-76
2022/12/06 04:10:33;;;;;;;3.30;0.17;;;5.00;99.90;;;;;;5055481;28;20115;-76
2022/12/06 04:12:59;;;;;;;0.70;0.10;;;5.00;99.90;;;;;;5054057;28;20021;-76
2022/12/06 04:15:25;;;;;;;4.28;0.05;;;5.00;99.90;;;;;;5056018;28;20036;-75
2022/12/06 04:18:10;;;;;;;1.88;0.00;;;5.00;99.90;;;;;;5054129;28;20057;-76
2022/12/06 04:23:38;;;;;;;3.85;0.08;;;4.90;99.90;;;;;;5037294;28;20060;-78
2022/12/06 04:26:06;;;;;;;0.75;0.00;;;4.90;99.90;;;;;;5035539;28;20392;-78
2022/12/06 04:39:33;;;;;;;5.82;0.17;;;4.70;99.90;;;;;;5036075;28;20064;-77
2022/12/06 04:44:44;;;;;;;0.30;0.10;;;4.70;99.90;;;;;;5035633;28;20091;-78
2022/12/06 04:47:12;;;;;;;3.63;0.10;;;4.70;99.90;;;;;;5034868;28;20431;-78
2022/12/06 04:49:40;;;;;;;3.75;0.10;;;4.70;99.90;;;;;;5036462;28;20507;-79
2022/12/06 04:52:09;;;;;;;2.08;0.20;;;4.70;99.90;;;;;;5034103;28;20068;-79
2022/12/06 04:54:35;;;;;;;1.30;0.00;;;4.70;99.90;;;;;;5034425;28;20480;-79
2022/12/06 04:57:02;;;;;;;1.20;0.10;;;4.80;99.90;;;;;;5035291;28;20021;-79
2022/12/06 04:59:28;;;;;;;2.10;0.10;;;;;;;;;;5034065;28;20396;-78
2022/12/06 05:01:55;;;;;;;3.45;0.20;;;;;;;;;;5036029;28;20089;-79
2022/12/06 05:04:23;;;;;;;1.83;0.10;;;4.70;99.90;;;;;;5035623;28;20037;-79
2022/12/06 05:06:49;;;;;;;0.75;0.00;;;4.70;99.90;;;;;;5035667;28;20122;-79
2022/12/06 05:09:15;;;;;;;2.75;0.15;;;;;;;;;;5034308;28;20018;-79
2022/12/06 05:11:41;;;;;;;1.25;0.40;;;4.70;99.90;;;;;;5035391;28;20061;-78
2022/12/06 05:14:06;;;;;;;4.53;0.00;;;4.70;99.90;;;;;;5033931;28;20017;-78
2022/12/06 05:16:35;;;;;;;4.32;0.00;;;4.60;99.90;;;;;;5034468;28;20113;-78
2022/12/06 05:19:03;;;;;;;0.98;0.20;;;4.50;99.90;;;;;;5035063;28;20504;-78
2022/12/06 05:21:29;;;;;;;1.83;0.00;;;;;;;;;;5033661;28;20029;-79
2022/12/06 05:23:58;;;;;;;4.80;0.55;;;;;;;;;;5033208;28;20025;-78
2022/12/06 05:26:26;;;;;;;2.70;0.05;;;4.50;99.90;;;;;;5034786;28;20025;-79
2022/12/06 05:28:53;;;;;;;3.83;0.00;;;4.50;99.90;;;;;;5034771;28;20476;-78
2022/12/06 05:31:19;;;;;;;1.25;0.08;;;4.50;99.90;;;;;;5033284;28;20058;-78
2022/12/06 05:33:46;;;;;;;3.60;0.20;;;;;;;;;;5033524;28;20029;-78
2022/12/06 05:36:17;;;;;;;5.90;0.17;;;4.50;99.90;;;;;;5033364;28;20480;-78
2022/12/06 05:38:44;;;;;;;2.47;0.63;;;;;;;;;;5034672;28;20041;-78
2022/12/06 05:41:13;;;;;;;1.73;0.13;;;4.50;99.90;;;;;;5034763;28;20104;-78
2022/12/06 05:43:41;;;;;;;5.82;0.35;;;4.50;99.90;;;;;;5033441;28;20106;-78
2022/12/06 05:46:07;;;;;;;0.82;0.00;;;4.40;99.90;;;;;;5033589;28;20535;-78
2022/12/06 05:48:33;;;;;;;1.48;0.10;;;4.40;99.90;;;;;;5033672;28;20017;-78
2022/12/06 05:50:59;;;;;;;3.63;0.20;;;4.40;99.90;;;;;;5034353;28;20025;-78
2022/12/06 05:53:25;;;;;;;1.60;0.20;;;4.30;99.90;;;;;;5034459;28;20021;-78
2022/12/06 05:55:50;;;;;;;1.90;0.10;;;4.40;99.90;;;;;;5033076;28;20534;-78
2022/12/06 05:58:17;;;;;;;4.10;0.22;;;4.30;99.90;;;;;;5033103;28;20088;-78
2022/12/06 06:00:51;;;;;;;2.63;0.22;;;4.40;99.90;;;;;;5034627;28;20026;-78
2022/12/06 06:03:17;;;;;;;3.10;0.30;;;4.40;99.90;;;;;;5032771;28;20503;-78
2022/12/06 06:05:48;;;;;;;3.35;0.30;;;;;;;;;;5033786;28;20029;-78
2022/12/06 06:08:15;;;;;;;1.42;0.10;;;4.40;99.90;;;;;;5034598;28;20033;-79
2022/12/06 06:10:40;;;;;;;2.42;0.00;;;4.40;99.90;;;;;;5033933;28;20468;-78
2022/12/06 06:13:06;;;;;;;3.28;0.80;;;4.40;99.90;;;;;;5032394;28;20036;-77
2022/12/06 06:15:34;;;;;;;0.20;0.00;;;4.40;99.90;;;;;;5032595;28;20065;-79
2022/12/06 06:17:59;;;;;;;5.50;0.10;;;4.40;99.90;;;;;;5033025;28;20025;-79
2022/12/06 06:20:28;;;;;;;2.35;0.17;;;4.30;99.90;;;;;;5033638;28;20030;-78
2022/12/06 06:22:54;;;;;;;2.53;0.20;;;;;;;;;;5033313;28;20528;-78
2022/12/06 06:25:22;;;;;;;1.60;0.38;;;4.20;99.90;;;;;;5033834;28;20036;-76
2022/12/06 06:27:51;;;;;;;2.10;0.22;;;4.10;99.90;;;;;;5036543;28;20029;-78
2022/12/06 06:30:17;;;;;;;3.42;0.03;;;3.20;99.90;;;;;;5038841;28;20030;-78
2022/12/06 06:32:43;;;;;;;3.08;0.08;;;;;;;;;;5039016;28;20097;-78
2022/12/06 06:35:11;;;;;;;2.30;0.00;;;3.80;99.90;;;;;;5038355;28;20104;-78
2022/12/06 06:37:40;;;;;;;1.53;0.07;;;3.80;99.90;;;;;;5038273;28;20025;-78
2022/12/06 06:40:06;;;;;;;3.70;0.95;;;3.70;99.90;;;;;;5038439;28;20396;-78
2022/12/06 06:42:32;;;;;;;3.30;0.20;;;3.60;99.90;;;;;;5037299;28;20025;-78
2022/12/06 06:44:58;;;;;;;2.22;0.32;;;;;;;;;;5036337;28;20397;-76
2022/12/06 06:47:26;;;;;;;1.95;0.22;;;3.50;99.90;;;;;;5035886;28;20017;-76
2022/12/06 06:49:52;;;;;;;1.55;0.10;;;;;;;;;;5037092;28;20155;-76
2022/12/06 06:52:21;;;;;;;2.35;0.00;;;3.30;99.90;;;;;;5035667;28;20088;-75
2022/12/06 06:54:47;;;;;;;3.17;0.03;;;;;;;;;;5035757;28;20021;-75
2022/12/06 06:57:13;;;;;;;2.20;0.10;;;3.30;99.90;;;;;;5035714;28;20037;-75
2022/12/06 06:59:38;;;;;;;7.10;0.25;;;3.10;99.90;;;;;;5037944;28;20495;-76
2022/12/06 07:02:04;;;;;;;2.67;0.35;;;3.00;99.90;;;;;;5036819;28;20022;-76
2022/12/06 07:04:32;;;;;;;6.05;0.82;;;3.00;99.90;;;;;;5036388;28;20056;-75
2022/12/06 07:06:59;;;;;;;2.25;0.20;;;2.90;99.90;;;;;;5037662;28;20037;-75
2022/12/06 07:09:24;;;;;;;2.90;0.30;;;2.90;99.90;;;;;;5037936;28;20048;-75
2022/12/06 07:11:50;;;;;;;2.95;0.38;;;;;;;;;;5035806;28;20029;-75
2022/12/06 07:14:19;;;;;;;0.98;0.30;;;2.70;99.90;;;;;;5036117;28;20033;-75
2022/12/06 07:16:47;;;;;;;1.23;0.10;;;2.70;99.90;;;;;;5036865;28;20025;-75
2022/12/06 07:19:16;;;;;;;4.30;0.20;;;2.60;99.90;;;;;;5036409;28;20025;-76
2022/12/06 07:21:45;;;;;;;0.80;0.10;;;2.50;99.90;;;;;;5037454;28;20553;-75
2022/12/06 07:24:13;;;;;;;0.63;0.10;;;2.50;99.90;;;;;;5036210;28;20066;-75
2022/12/06 07:26:43;;;;;;;4.90;1.30;;;2.40;99.90;;;;;;5036950;28;20168;-76
2022/12/06 07:29:08;;;;;;;2.15;0.20;;;2.30;99.90;;;;;;5035998;28;20055;-76
2022/12/06 07:31:39;;;;;;;0.88;0.40;;;2.30;99.90;;;;;;5037301;28;20060;-76
2022/12/06 07:34:05;;;;;;;1.67;0.10;;;2.30;99.90;;;;;;5037883;28;20025;-76
2022/12/06 07:36:32;;;;;;;3.70;0.10;;;;;;;;;;5035982;28;20026;-76
2022/12/06 07:39:01;;;;;;;1.50;0.10;;;2.10;99.90;;;;;;5035794;28;20112;-76
2022/12/06 07:47:01;;;;;;;1.00;0.10;;;2.10;99.90;;;;;;5036933;28;20420;-75
2022/12/06 07:49:28;;;;;;;0.85;0.00;;;2.00;99.90;;;;;;5036100;28;20021;-77
2022/12/06 07:51:54;;;;;;;4.70;0.45;;;2.00;99.90;;;;;;5036663;28;20033;-77
2022/12/06 07:54:21;;;;;;;1.70;0.20;;;;;;;;;;5036345;28;20044;-77
2022/12/06 07:56:49;;;;;;;2.13;0.55;;;2.00;99.90;;;;;;5036075;28;20103;-77
2022/12/06 07:59:15;;;;;;;1.75;0.20;;;2.00;99.90;;;;;;5034908;28;20435;-77
2022/12/06 08:01:43;;;;;;;3.10;0.68;;;2.00;99.90;;;;;;5036512;28;20075;-78
2022/12/06 08:04:09;;;;;;;2.03;0.50;;;2.00;99.90;;;;;;5035845;28;20040;-78
2022/12/06 08:06:35;;;;;;;19.95;3.28;;;2.00;99.90;;;;;;5036451;28;20380;-78
2022/12/06 08:09:01;;;;;;;18.20;3.10;;;2.00;99.90;;;;;;5034905;28;20017;-78
2022/12/06 08:11:27;;;;;;;11.98;1.20;;;2.00;99.90;;;;;;5034573;28;20025;-77
2022/12/06 08:13:53;;;;;;;7.22;0.93;;;2.00;99.90;;;;;;5034629;28;20045;-77
2022/12/06 08:16:18;;;;;;;6.60;0.52;;;2.10;99.90;;;;;;5035824;28;20432;-78
2022/12/06 08:18:47;;;;;;;1.95;0.28;;;2.10;99.90;;;;;;5034654;28;20188;-78
2022/12/06 08:21:13;;;;;;;4.45;0.22;;;2.20;99.90;;;;;;5036792;28;20568;-77
2022/12/06 08:23:38;;;;;;;1.50;0.20;;;2.20;99.90;;;;;;5035787;28;20053;-78
2022/12/06 08:26:07;;;;;;;5.38;0.43;;;2.20;99.90;;;;;;5034775;28;20032;-78
2022/12/06 08:28:35;;;;;;;4.57;0.95;;;2.30;99.90;;;;;;5034537;28;20045;-77
2022/12/06 08:31:14;;;;;;;2.42;0.75;;;2.40;99.90;;;;;;5035716;28;20037;-78
2022/12/06 08:33:40;;;;;;;3.17;0.40;;;2.30;99.90;;;;;;5035595;28;20021;-78
2022/12/06 08:36:08;;;;;;;2.92;0.85;;;2.50;99.90;;;;;;5035331;28;20029;-78
2022/12/06 08:38:41;;;;;;;2.05;0.28;;;2.50;99.90;;;;;;5035668;28;20111;-78
2022/12/06 08:43:54;;;;;;;5.43;0.60;;;;;;;;;;5024861;28;20123;-77
2022/12/06 08:46:20;;;;;;;10.98;2.22;;;2.70;99.90;;;;;;5036013;28;20528;-77
2022/12/06 08:48:46;;;;;;;9.98;1.83;;;2.80;99.90;;;;;;5033917;28;20377;-78
2022/12/06 08:51:14;;;;;;;17.00;2.38;;;2.80;99.90;;;;;;5034949;28;20033;-78
2022/12/06 08:53:40;;;;;;;17.13;3.53;;;;;;;;;;5035589;28;20053;-79
2022/12/06 08:56:06;;;;;;;8.35;1.08;;;3.10;99.90;;;;;;5035609;28;20080;-78
2022/12/06 08:58:32;;;;;;;3.50;0.65;;;;;;;;;;5034036;28;20036;-78
2022/12/06 09:01:28;;;;;;;6.35;0.60;;;3.20;99.90;;;;;;5035612;28;20112;-78
2022/12/06 09:03:54;;;;;;;4.28;0.57;;;3.30;99.90;;;;;;5020468;28;20034;-78
2022/12/06 09:06:23;;;;;;;4.28;0.60;;;3.40;99.90;;;;;;5034787;28;20032;-78
2022/12/06 09:08:49;;;;;;;2.90;0.98;;;3.40;99.90;;;;;;5033848;28;20073;-78
2022/12/06 09:11:15;;;;;;;2.35;0.60;;;3.50;99.90;;;;;;5035380;28;20029;-78
2022/12/06 09:13:42;;;;;;;3.25;0.93;;;3.70;99.90;;;;;;5034881;28;20030;-77
2022/12/06 09:16:14;;;;;;;5.50;1.30;;;3.70;99.90;;;;;;5034990;28;20021;-78
2022/12/06 09:18:43;;;;;;;5.00;1.02;;;3.90;99.90;;;;;;5033740;28;20075;-78
2022/12/06 09:21:12;;;;;;;6.90;0.88;;;4.00;99.90;;;;;;5033577;28;20033;-78
2022/12/06 09:23:38;;;;;;;3.95;0.98;;;4.00;99.90;;;;;;5033772;28;20021;-77
2022/12/06 09:26:07;;;;;;;6.65;0.82;;;4.20;99.90;;;;;;5033648;28;20160;-77
2022/12/06 09:28:36;;;;;;;7.65;1.52;;;4.30;99.90;;;;;;5035131;28;20399;-77
2022/12/06 09:31:02;;;;;;;4.45;1.52;;;4.40;99.90;;;;;;5034305;28;20386;-78
2022/12/06 09:33:28;;;;;;;8.18;1.42;;;4.60;99.90;;;;;;5035502;28;20018;-78
2022/12/06 09:36:01;;;;;;;5.88;0.93;;;4.70;99.90;;;;;;5035149;28;20022;-78
2022/12/06 09:38:30;;;;;;;5.60;1.05;;;4.60;99.90;;;;;;5035963;28;20109;-78
2022/12/06 09:41:03;;;;;;;3.78;0.57;;;4.70;99.90;;;;;;5035101;28;20511;-78
2022/12/06 09:43:47;;;;;;;3.65;0.90;;;4.60;99.90;;;;;;5034047;28;20127;-78
2022/12/06 09:46:31;;;;;;;3.42;1.02;;;4.70;99.90;;;;;;5036597;28;20508;-79
2022/12/06 09:49:12;;;;;;;6.55;0.98;;;4.70;99.90;;;;;;5038109;28;20083;-79
2022/12/06 09:52:06;;;;;;;5.28;0.80;;;4.80;99.90;;;;;;5039069;28;20064;-79
2022/12/06 09:55:02;;;;;;;2.17;0.70;;;5.00;99.90;;;;;;5038333;28;20029;-79
2022/12/06 09:57:50;;;;;;;4.28;0.65;;;5.10;99.90;;;;;;5034595;28;20033;-78
2022/12/06 10:00:26;;;;;;;6.78;1.67;;;5.30;99.90;;;;;;5033834;28;20116;-78
2022/12/06 10:03:43;;;;;;;1.95;0.70;;;5.60;99.90;;;;;;5034212;28;20423;-79
2022/12/06 10:06:15;;;;;;;6.13;1.38;;;5.80;99.90;;;;;;4989982;28;20055;-78
2022/12/06 10:08:53;;;;;;;3.58;0.60;;;5.80;99.90;;;;;;5035757;28;20518;-79
2022/12/06 10:11:34;;;;;;;9.75;1.15;;;;;;;;;;5033694;28;20377;-78
2022/12/06 10:14:12;;;;;;;4.47;0.45;;;;;;;;;;5034155;28;20037;-79
2022/12/06 10:17:06;;;;;;;2.65;0.68;;;6.00;99.90;;;;;;5034387;28;20083;-78
2022/12/06 10:20:03;;;;;;;7.53;0.68;;;6.00;99.90;;;;;;5034743;28;20088;-79
2022/12/06 10:22:52;;;;;;;2.28;0.57;;;6.10;99.90;;;;;;5033986;28;20041;-78
2022/12/06 10:25:25;;;;;;;2.97;0.45;;;6.00;99.90;;;;;;5034044;28;20025;-78
2022/12/06 10:28:12;;;;;;;3.22;0.40;;;5.90;99.90;;;;;;5034733;28;20032;-78
2022/12/06 10:30:55;;;;;;;6.40;0.63;;;5.90;99.90;;;;;;5034263;28;20041;-78
2022/12/06 10:33:20;;;;;;;6.43;0.60;;;5.90;99.90;;;;;;5035554;28;20033;-78
2022/12/06 10:35:59;;;;;;;5.25;1.05;;;5.80;99.90;;;;;;5035235;28;20029;-78
2022/12/06 10:38:47;;;;;;;4.95;0.50;;;5.90;99.90;;;;;;5035610;28;20029;-78
2022/12/06 10:41:40;;;;;;;5.07;0.60;;;6.10;99.90;;;;;;5034155;28;20025;-78
2022/12/06 10:44:31;;;;;;;2.05;0.32;;;6.10;99.90;;;;;;5024795;28;20359;-77
2022/12/06 10:47:20;;;;;;;3.10;0.95;;;6.20;99.90;;;;;;5015418;28;20030;-78
2022/12/06 10:50:17;;;;;;;4.05;0.32;;;6.30;99.90;;;;;;5015794;28;20026;-78
2022/12/06 10:53:02;;;;;;;3.92;0.32;;;6.50;99.90;;;;;;5015477;28;20033;-79
2022/12/06 10:55:40;;;;;;;5.45;0.47;;;6.60;99.90;;;;;;5033407;28;20053;-79
2022/12/06 10:58:26;;;;;;;2.15;0.75;;;6.70;99.90;;;;;;5035389;28;20030;-79
2022/12/06 11:00:59;;;;;;;8.05;1.00;;;6.80;99.90;;;;;;5035747;28;20061;-79
2022/12/06 11:03:38;;;;;;;4.78;0.35;;;7.00;99.90;;;;;;5036499;28;20029;-79
2022/12/06 11:06:28;;;;;;;7.50;0.93;;;7.40;99.90;;;;;;5036059;28;20053;-79
2022/12/06 11:09:02;;;;;;;6.68;0.93;;;7.40;99.90;;;;;;5035912;28;20029;-79
2022/12/06 11:11:34;;;;;;;5.70;0.30;;;7.40;99.90;;;;;;5032668;28;20032;-78
2022/12/06 11:14:14;;;;;;;5.15;0.35;;;7.50;99.90;;;;;;5032984;28;20484;-78
2022/12/06 11:16:45;;;;;;;2.92;0.45;;;7.40;99.90;;;;;;5036364;28;20018;-76
2022/12/06 11:19:19;;;;;;;3.03;0.38;;;7.40;99.90;;;;;;5036511;28;20075;-75
2022/12/06 11:21:52;;;;;;;3.20;0.22;;;7.40;99.90;;;;;;5036199;28;20040;-75
2022/12/06 11:24:35;;;;;;;0.80;0.10;;;7.50;99.90;;;;;;5034988;28;20072;-75
2022/12/06 11:27:08;;;;;;;3.72;0.43;;;7.40;99.90;;;;;;5034945;28;20392;-76
2022/12/06 11:29:36;;;;;;;0.85;0.10;;;7.40;99.90;;;;;;5036293;28;20021;-77
2022/12/06 11:32:06;;;;;;;1.08;0.20;;;7.40;99.90;;;;;;5035009;28;20037;-76
2022/12/06 11:34:42;;;;;;;0.98;0.00;;;7.40;99.90;;;;;;5034911;28;20061;-76
2022/12/06 11:37:14;;;;;;;4.47;0.32;;;7.40;99.90;;;;;;5036155;28;20013;-76
2022/12/06 11:39:40;;;;;;;4.18;0.35;;;;;;;;;;5036176;28;20092;-75
2022/12/06 11:42:11;;;;;;;4.57;0.20;;;7.50;99.90;;;;;;5034784;28;20030;-75
2022/12/06 11:44:41;;;;;;;1.80;0.52;;;7.40;99.90;;;;;;5036526;28;20024;-76
2022/12/06 11:47:15;;;;;;;2.45;0.15;;;7.40;99.90;;;;;;5034545;28;20072;-76
2022/12/06 11:49:45;;;;;;;2.92;0.20;;;7.40;99.90;;;;;;5035905;28;20114;-75
2022/12/06 11:52:42;;;;;;;1.80;0.30;;;7.50;99.90;;;;;;5034479;28;20029;-76
2022/12/06 11:55:19;;;;;;;0.93;0.00;;;7.40;99.90;;;;;;5036013;28;20025;-75
2022/12/06 11:58:05;;;;;;;4.18;0.00;;;7.50;99.90;;;;;;5034707;28;20045;-76
2022/12/06 12:00:30;;;;;;;3.42;0.17;;;7.50;99.90;;;;;;5035975;28;20029;-76
2022/12/06 12:03:02;;;;;;;0.32;0.10;;;7.80;99.90;;;;;;5035707;28;20028;-76
2022/12/06 12:05:33;;;;;;;1.35;0.30;;;7.80;99.90;;;;;;5034419;28;20443;-76
2022/12/06 12:08:00;;;;;;;1.20;0.20;;;7.90;99.90;;;;;;5035640;28;20022;-76
2022/12/06 12:10:56;;;;;;;3.85;0.08;;;7.90;99.90;;;;;;5034079;28;20485;-76
2022/12/06 12:16:23;;;;;;;1.27;0.00;;;7.80;99.90;;;;;;5036067;28;20064;-76
2022/12/06 12:19:01;;;;;;;2.90;0.40;;;;;;;;;;5035511;28;20033;-76
2022/12/06 12:21:42;;;;;;;1.90;0.00;;;7.70;99.90;;;;;;5035604;28;20493;-77
2022/12/06 12:24:48;;;;;;;1.33;0.43;;;7.70;99.90;;;;;;5033819;28;20121;-76
2022/12/06 12:27:40;;;;;;;1.50;0.00;;;7.60;99.90;;;;;;5028284;28;20034;-76
2022/12/06 12:30:20;;;;;;;1.08;0.30;;;7.50;99.90;;;;;;5033853;28;20167;-76
2022/12/06 12:32:48;;;;;;;3.13;0.35;;;7.50;99.90;;;;;;5034105;28;20108;-76
2022/12/06 12:35:29;;;;;;;1.52;0.10;;;;;;;;;;5035210;28;20025;-76
2022/12/06 12:38:02;;;;;;;3.72;0.10;;;7.40;99.90;;;;;;5035752;28;20373;-76
2022/12/06 12:40:36;;;;;;;2.25;0.10;;;7.50;99.90;;;;;;5033941;28;20035;-77
2022/12/06 12:43:08;;;;;;;1.70;0.05;;;7.50;99.90;;;;;;5033417;28;20018;-77
2022/12/06 12:45:34;;;;;;;3.60;0.00;;;7.50;99.90;;;;;;5033628;28;20396;-75
2022/12/06 12:48:02;;;;;;;2.35;0.32;;;;;;;;;;5033625;28;20018;-76
2022/12/06 12:50:30;;;;;;;3.83;0.20;;;7.60;99.90;;;;;;5034537;28;20029;-76
2022/12/06 12:52:55;;;;;;;1.77;0.00;;;7.70;99.90;;;;;;5033497;28;20100;-76
2022/12/06 12:55:27;;;;;;;2.25;0.52;;;7.60;99.90;;;;;;5033264;28;20057;-76
2022/12/06 12:57:58;;;;;;;5.57;0.15;;;7.70;99.90;;;;;;5035118;28;20024;-76
2022/12/06 13:00:46;;;;;;;0.47;0.00;;;7.70;99.90;;;;;;5033318;28;20021;-76
2022/12/06 13:03:17;;;;;;;0.43;0.00;;;7.70;99.90;;;;;;5033205;28;20032;-76
2022/12/06 13:05:45;;;;;;;3.42;0.08;;;7.80;99.90;;;;;;5033091;28;20025;-76
2022/12/06 13:08:19;;;;;;;2.17;0.10;;;7.80;99.90;;;;;;5033136;28;20032;-76
2022/12/06 13:10:54;;;;;;;1.90;0.00;;;7.80;99.90;;;;;;5033383;28;20025;-76
2022/12/06 13:13:29;;;;;;;1.52;0.03;;;7.80;99.90;;;;;;5033229;28;20057;-76
2022/12/06 13:15:57;;;;;;;1.38;0.05;;;7.70;99.90;;;;;;5034532;28;20071;-76
2022/12/06 13:18:41;;;;;;;1.13;0.00;;;7.70;99.90;;;;;;5033016;28;20120;-76
2022/12/06 13:21:26;;;;;;;2.88;0.00;;;7.70;99.90;;;;;;5034402;28;20033;-76
2022/12/06 13:24:09;;;;;;;4.50;0.10;;;7.70;99.90;;;;;;5034576;28;20037;-76
2022/12/06 13:26:45;;;;;;;0.70;0.00;;;7.70;99.90;;;;;;5032850;28;20141;-75
2022/12/06 13:29:37;;;;;;;0.65;0.00;;;7.90;99.90;;;;;;5032977;28;20027;-76
2022/12/06 13:32:10;;;;;;;2.20;0.17;;;7.80;99.90;;;;;;5032543;28;20040;-76
2022/12/06 13:34:40;;;;;;;1.15;0.00;;;7.80;99.90;;;;;;5032748;28;20085;-76
2022/12/06 13:37:25;;;;;;;3.28;0.00;;;7.80;99.90;;;;;;5032097;28;20053;-75
2022/12/06 13:39:50;;;;;;;0.73;0.00;;;7.80;99.90;;;;;;5033865;28;20031;-76
2022/12/06 13:42:35;;;;;;;1.02;0.00;;;7.80;99.90;;;;;;5033729;28;20480;-76
2022/12/06 13:45:02;;;;;;;0.65;0.00;;;;;;;;;;5034126;28;20088;-76
2022/12/06 13:47:28;;;;;;;0.40;0.00;;;7.80;99.90;;;;;;5032411;28;20041;-75
2022/12/06 13:50:28;;;;;;;1.75;0.10;;;7.90;99.90;;;;;;5032699;28;20048;-77
2022/12/06 13:52:54;;;;;;;3.13;0.90;;;;;;;;;;5032684;28;20060;-77
2022/12/06 13:55:27;;;;;;;3.88;0.45;;;8.00;99.90;;;;;;5032923;28;20125;-76
2022/12/06 13:58:15;;;;;;;1.20;0.00;;;7.90;99.90;;;;;;5033933;28;20076;-77